Terminal Aerodrome Forecast
Issued by NWS Charleston, WV

Current Version | Previous Version | Graphics & Text | Print | Product List | Glossary On
Versions: 1 2 3 4 5 6 7 8 9 10 11 12 13 14 15 16 17 18 19 20 21 22 23
095
FTUS41 KRLX 030538
TAFHTS
TAF
KHTS 030538Z 0306/0406 16012G20KT P6SM OVC090
     FM030700 17012G19KT 6SM SHRA OVC050
     FM030900 17012G19KT 3SM SHRA OVC025
     FM031300 19008G15KT 4SM SHRA BKN025
     FM031500 21008KT P6SM BKN035
     FM032000 23010G16KT P6SM FEW050=

USA.gov is the U.S. government's official web portal to all federal, state and local government web resources and services.